createdAt,value
2022-12-18T00:05:00.156Z,-4.20
2022-12-18T00:10:04.226Z,-4.20
2022-12-18T00:15:09.702Z,-4.40
2022-12-18T00:20:13.090Z,-4.40
2022-12-18T00:25:16.325Z,-4.50
2022-12-18T00:30:20.832Z,-4.50
2022-12-18T00:35:24.148Z,-4.50
2022-12-18T00:40:27.461Z,-4.40
2022-12-18T00:45:32.346Z,-4.50
2022-12-18T00:50:35.416Z,-4.60
2022-12-18T00:55:39.872Z,-4.60
2022-12-18T01:00:44.787Z,-4.70
2022-12-18T01:05:48.031Z,-4.70
2022-12-18T01:10:51.864Z,-4.70
2022-12-18T01:15:56.714Z,-4.80
2022-12-18T01:21:00.021Z,-4.70
2022-12-18T01:26:07.378Z,-4.60
2022-12-18T01:31:17.231Z,-4.40
2022-12-18T01:36:23.183Z,-4.60
2022-12-18T01:41:52.162Z,-4.60
2022-12-18T01:46:56.673Z,-4.80
2022-12-18T01:52:00.019Z,-4.80
2022-12-18T01:57:03.316Z,-4.60
2022-12-18T02:02:09.003Z,-4.70
2022-12-18T02:07:21.077Z,-4.70
2022-12-18T02:12:35.215Z,-4.70
2022-12-18T02:17:46.440Z,-4.80
2022-12-18T02:23:02.474Z,-4.90
2022-12-18T02:28:10.531Z,-4.80
2022-12-18T02:33:15.646Z,-4.80
2022-12-18T02:38:21.338Z,-4.80
2022-12-18T02:43:30.690Z,-4.80
2022-12-18T02:48:36.451Z,-4.80
2022-12-18T02:53:46.597Z,-4.70
2022-12-18T02:58:59.654Z,-4.80
2022-12-18T03:04:16.173Z,-4.90
2022-12-18T03:09:22.365Z,-4.90
2022-12-18T03:14:30.363Z,-4.90
2022-12-18T03:19:35.477Z,-5.00
2022-12-18T03:24:40.883Z,-4.90
2022-12-18T03:29:47.498Z,-4.90
2022-12-18T03:34:56.373Z,-4.90
2022-12-18T03:40:00.673Z,-4.90
2022-12-18T03:45:11.626Z,-4.90
2022-12-18T03:50:20.917Z,-5.00
2022-12-18T03:55:31.373Z,-5.10
2022-12-18T04:00:40.010Z,-5.10
2022-12-18T04:05:47.343Z,-5.10
2022-12-18T04:10:51.639Z,-5.10
2022-12-18T04:15:57.065Z,-5.00
2022-12-18T04:21:01.439Z,-5.10
2022-12-18T04:26:05.454Z,-5.10
2022-12-18T04:31:33.388Z,-5.10
2022-12-18T04:36:37.049Z,-5.00
2022-12-18T04:41:40.704Z,-5.00
2022-12-18T04:46:45.517Z,-5.00
2022-12-18T04:51:48.853Z,-5.10
2022-12-18T04:56:52.404Z,-5.10
2022-12-18T05:01:57.513Z,-5.10
2022-12-18T05:07:01.107Z,-5.20
2022-12-18T05:12:04.488Z,-5.20
2022-12-18T05:17:09.222Z,-5.20
2022-12-18T05:22:12.998Z,-5.00
2022-12-18T05:27:16.140Z,-5.20
2022-12-18T05:32:20.656Z,-5.30
2022-12-18T05:37:23.938Z,-5.30
2022-12-18T05:42:27.081Z,-5.20
2022-12-18T05:47:31.559Z,-5.20
2022-12-18T05:52:34.826Z,-5.20
2022-12-18T05:57:38.166Z,-5.30
2022-12-18T06:02:42.765Z,-5.20
2022-12-18T06:07:45.990Z,-5.30
2022-12-18T06:12:49.220Z,-5.30
2022-12-18T06:17:54.058Z,-5.30
2022-12-18T06:22:57.046Z,-5.30
2022-12-18T06:28:00.477Z,-5.20
2022-12-18T06:33:04.946Z,-5.20
2022-12-18T06:38:08.499Z,-5.20
2022-12-18T06:43:11.665Z,-5.10
2022-12-18T06:48:16.172Z,-5.10
2022-12-18T06:53:19.304Z,-5.20
2022-12-18T06:58:22.463Z,-5.20
2022-12-18T07:03:26.972Z,-5.20
2022-12-18T07:08:31.564Z,-5.30
2022-12-18T07:13:34.810Z,-5.20
2022-12-18T07:18:39.486Z,-5.20
2022-12-18T07:23:43.006Z,-5.20
2022-12-18T07:28:46.590Z,-5.20
2022-12-18T07:33:51.953Z,-5.20
2022-12-18T07:38:55.229Z,-5.20
2022-12-18T07:43:58.334Z,-5.10
2022-12-18T07:49:02.806Z,-5.10
2022-12-18T07:54:06.047Z,-5.20
2022-12-18T07:59:09.299Z,-5.10
2022-12-18T08:04:13.756Z,-5.10
2022-12-18T08:09:16.935Z,-5.10
2022-12-18T08:14:20.087Z,-5.00
2022-12-18T08:19:24.915Z,-5.00
2022-12-18T08:24:27.920Z,-4.90
2022-12-18T08:29:31.533Z,-5.00
2022-12-18T08:34:36.310Z,-4.90
2022-12-18T08:39:39.430Z,-4.80
2022-12-18T08:44:42.576Z,-4.80
2022-12-18T08:49:47.111Z,-4.70
2022-12-18T08:54:50.818Z,-4.60
2022-12-18T08:59:53.885Z,-4.60
2022-12-18T09:04:58.306Z,-4.40
2022-12-18T09:10:01.554Z,-4.30
2022-12-18T09:15:06.217Z,-4.20
2022-12-18T09:20:11.556Z,-4.00
2022-12-18T09:25:14.761Z,-3.90
2022-12-18T09:30:19.491Z,-3.80
2022-12-18T09:35:24.095Z,-3.70
2022-12-18T09:40:40.718Z,-3.80
2022-12-18T09:45:47.258Z,-4.00
2022-12-18T09:50:54.591Z,-3.90
2022-12-18T09:56:01.561Z,-3.80
2022-12-18T10:01:11.952Z,-3.90
2022-12-18T10:06:21.660Z,-3.80
2022-12-18T10:11:41.795Z,-3.50
2022-12-18T10:16:55.363Z,-3.90
2022-12-18T10:22:11.659Z,-3.70
2022-12-18T10:27:17.495Z,-3.60
2022-12-18T10:32:25.915Z,-3.60
2022-12-18T10:37:31.116Z,-3.40
2022-12-18T10:42:39.041Z,-3.30
2022-12-18T10:47:49.391Z,-3.10
2022-12-18T10:52:59.975Z,-3.30
2022-12-18T10:58:26.643Z,-3.10
2022-12-18T11:03:33.622Z,-3.30
2022-12-18T11:08:41.055Z,-3.50
2022-12-18T11:13:59.869Z,-3.40
2022-12-18T11:19:21.008Z,-3.00
2022-12-18T11:24:29.891Z,-2.90
2022-12-18T11:29:35.353Z,-2.90
2022-12-18T11:34:38.968Z,-2.90
2022-12-18T11:39:50.734Z,-2.80
2022-12-18T11:44:59.237Z,-2.70
2022-12-18T11:50:10.486Z,-2.80
2022-12-18T11:55:22.177Z,-2.80
2022-12-18T12:00:25.854Z,-2.60
2022-12-18T12:05:39.082Z,-2.50
2022-12-18T12:10:55.833Z,-2.60
2022-12-18T12:16:09.121Z,-2.50
2022-12-18T12:21:21.391Z,-2.70
2022-12-18T12:26:33.051Z,-2.60
2022-12-18T12:31:58.224Z,-2.50
2022-12-18T12:37:20.887Z,-2.50
2022-12-18T12:42:51.612Z,-2.50
2022-12-18T12:47:57.517Z,-2.70
2022-12-18T12:53:07.900Z,-2.70
2022-12-18T12:58:18.508Z,-2.70
2022-12-18T13:03:35.533Z,-2.80
2022-12-18T13:08:54.815Z,-2.80
2022-12-18T13:14:02.118Z,-3.00
2022-12-18T13:19:22.100Z,-2.90
2022-12-18T13:24:28.319Z,-2.90
2022-12-18T13:29:44.457Z,-2.90
2022-12-18T13:34:47.936Z,-2.80
2022-12-18T13:39:51.124Z,-2.80
2022-12-18T13:44:55.757Z,-2.80
2022-12-18T13:49:59.519Z,-2.90
2022-12-18T13:55:06.808Z,-3.00
2022-12-18T14:00:26.957Z,-3.10
2022-12-18T14:05:32.671Z,-2.90
2022-12-18T14:10:47.974Z,-3.00
2022-12-18T14:15:55.529Z,-3.10
2022-12-18T14:21:00.799Z,-3.00
2022-12-18T14:26:21.259Z,-3.00
2022-12-18T14:31:27.470Z,-3.00
2022-12-18T14:36:30.689Z,-3.10
2022-12-18T14:41:34.210Z,-3.10
2022-12-18T14:46:43.974Z,-3.00
2022-12-18T14:51:50.613Z,-3.30
2022-12-18T14:57:00.803Z,-3.20
2022-12-18T15:02:15.057Z,-3.20
2022-12-18T15:07:22.043Z,-3.20
2022-12-18T15:12:33.880Z,-3.30
2022-12-18T15:17:39.478Z,-3.40
2022-12-18T15:22:51.427Z,-3.30
2022-12-18T15:27:54.659Z,-3.30
2022-12-18T15:33:24.254Z,-3.30
2022-12-18T15:38:28.023Z,-3.20
2022-12-18T15:43:37.967Z,-3.20
2022-12-18T15:48:44.057Z,-3.30
2022-12-18T15:53:48.393Z,-3.40
2022-12-18T15:58:51.558Z,-3.60
2022-12-18T16:03:56.509Z,-3.50
2022-12-18T16:08:59.545Z,-3.50
2022-12-18T16:14:02.691Z,-3.60
2022-12-18T16:19:07.398Z,-3.60
2022-12-18T16:24:15.733Z,-3.50
2022-12-18T16:29:19.503Z,-3.50
2022-12-18T16:34:29.875Z,-3.60
2022-12-18T16:39:35.104Z,-3.70
2022-12-18T16:44:38.478Z,-3.60
2022-12-18T16:49:43.140Z,-3.60
2022-12-18T16:54:46.653Z,-3.60
2022-12-18T16:59:49.975Z,-3.60
2022-12-18T17:04:56.154Z,-3.70
2022-12-18T17:09:59.578Z,-3.70
2022-12-18T17:15:03.116Z,-3.90
2022-12-18T17:20:08.959Z,-4.10
2022-12-18T17:25:12.376Z,-4.20
2022-12-18T17:30:15.630Z,-4.20
2022-12-18T17:35:20.149Z,-4.30
2022-12-18T17:40:23.782Z,-4.30
2022-12-18T17:45:27.400Z,-4.20
2022-12-18T17:50:32.823Z,-4.20
2022-12-18T17:55:35.950Z,-4.20
2022-12-18T18:00:39.428Z,-4.20
2022-12-18T18:05:43.950Z,-4.20
2022-12-18T18:10:49.119Z,-4.20
2022-12-18T18:15:56.146Z,-4.20
2022-12-18T18:21:05.220Z,-4.20
2022-12-18T18:26:09.747Z,-4.30
2022-12-18T18:31:15.559Z,-4.30
2022-12-18T18:36:20.314Z,-4.20
2022-12-18T18:41:24.618Z,-4.10
2022-12-18T18:46:27.962Z,-4.20
2022-12-18T18:51:35.329Z,-4.30
2022-12-18T18:57:18.694Z,-4.30
2022-12-18T19:02:04.758Z,-4.40
2022-12-18T19:07:10.163Z,-4.30
2022-12-18T19:12:31.917Z,-4.20
2022-12-18T19:17:36.493Z,-4.20
2022-12-18T19:22:41.142Z,-4.20
2022-12-18T19:27:45.999Z,-4.20
2022-12-18T19:32:49.272Z,-4.20
2022-12-18T19:37:53.869Z,-4.10
2022-12-18T19:42:57.090Z,-4.10
2022-12-18T19:48:04.219Z,-4.10
2022-12-18T19:53:09.093Z,-4.10
2022-12-18T19:58:13.975Z,-4.10
2022-12-18T20:03:27.133Z,-4.10
2022-12-18T20:08:36.010Z,-4.30
2022-12-18T20:13:39.677Z,-4.20
2022-12-18T20:18:43.112Z,-4.30
2022-12-18T20:23:48.357Z,-4.20
2022-12-18T20:28:52.171Z,-4.10
2022-12-18T20:33:59.589Z,-4.00
2022-12-18T20:39:07.671Z,-4.10
2022-12-18T20:44:23.641Z,-4.10
2022-12-18T20:49:27.411Z,-4.00
2022-12-18T20:54:31.926Z,-3.90
2022-12-18T20:59:34.989Z,-4.00
2022-12-18T21:04:38.203Z,-4.00
2022-12-18T21:09:42.686Z,-3.90
2022-12-18T21:14:45.966Z,-4.00
2022-12-18T21:19:50.293Z,-4.00
2022-12-18T21:24:55.409Z,-3.90
2022-12-18T21:29:58.525Z,-3.90
2022-12-18T21:35:01.660Z,-3.80
2022-12-18T21:40:07.921Z,-3.80
2022-12-18T21:45:12.151Z,-4.00
2022-12-18T21:50:15.258Z,-3.90
2022-12-18T21:55:19.750Z,-4.00
2022-12-18T22:00:23.143Z,-3.90
2022-12-18T22:05:26.401Z,-4.00
2022-12-18T22:10:30.835Z,-4.00
2022-12-18T22:15:34.120Z,-3.90
2022-12-18T22:20:37.225Z,-3.90
2022-12-18T22:25:41.762Z,-3.80
2022-12-18T22:30:44.934Z,-3.80
2022-12-18T22:35:48.024Z,-3.80
2022-12-18T22:40:52.703Z,-3.70
2022-12-18T22:45:57.461Z,-3.60
2022-12-18T22:51:00.972Z,-3.60
2022-12-18T22:56:05.652Z,-3.50
2022-12-18T23:01:18.978Z,-3.40
2022-12-18T23:06:25.161Z,-3.40
2022-12-18T23:11:29.612Z,-3.50
2022-12-18T23:16:33.137Z,-3.40
2022-12-18T23:21:36.502Z,-3.50
2022-12-18T23:26:41.665Z,-3.50
2022-12-18T23:31:45.057Z,-3.50
2022-12-18T23:36:50.916Z,-3.60
2022-12-18T23:41:57.781Z,-3.60
2022-12-18T23:47:00.982Z,-3.50
2022-12-18T23:52:04.257Z,-3.40
2022-12-18T23:57:08.641Z,-3.40
